SKBG

Palonegro Airport

Bucaramanga, Colombia
TAF SKBG 241100Z 2412/2512 19005KT 9999 FEW015 SCT090 BECMG 2415/2417 33008KT SCT017 TEMPO 2417/2419 7000 TSRA SCT012CB BKN070 BECMG 2501/2503 18005KT FEW012 SCT070 TX28/2418Z TN18/2511Z
Issued Valid From Valid To
Sep-24 @ 11:00 UTC
(3 hours ago)
Sep-24 @ 12:00 UTC
(2 hours ago)
Sep-25 @ 12:00 UTC
(in 22 hours)
Sep-24 @ 12:00 to Sep-24 @ 15:00
TAF SKBG 241100Z 2412/2512 19005KT 9999 FEW015 SCT090
Wind Visibility Clouds
190° at 5 knots 10,000+ meters
  • Few at 1,500' AGL
  • Scattered at 9,000' AGL
Becoming Sep-24 @ 15:00 to Sep-25 @ 01:00
BECMG 2415/2417 33008KT SCT017
Wind Visibility Clouds
330° at 8 knots 10,000+ meters
  • Scattered at 1,700' AGL
Temporary Sep-24 @ 17:00 to Sep-24 @ 19:00
TEMPO 2417/2419 7000 TSRA SCT012CB BKN070
Visibility Clouds Conditions
7,001 meters
  • Scattered at 1,200' AGL
  • Broken at 7,000' AGL
  • Thunderstorm
  • Rain
Becoming Sep-25 @ 01:00 to Sep-25 @ 12:00
BECMG 2501/2503 18005KT FEW012 SCT070 TX28/2418Z TN18/2511Z
Wind Visibility Clouds
180° at 5 knots 10,000+ meters
  • Few at 1,200' AGL
  • Scattered at 7,000' AGL
TAF SKBG 241100Z 2412/2512 19005KT 9999 FEW015 SCT090 BECMG 2415/2417 33008KT SCT017 TEMPO 2417/2419 7000 TSRA SCT012CB BKN070 BECMG 2501/2503 18005KT FEW012 SCT070 TX28/2418Z TN18/2511Z
Issued Sep-24 @ 11:00 UTC
(3 hours ago)
Valid From Sep-24 @ 12:00 UTC
(2 hours ago)
Valid To Sep-25 @ 12:00 UTC
(in 22 hours)
Sep-24 @ 12:00 - Sep-24 @ 15:00
Wind Visibility
190° at 5 knots 10,000+ meters
Clouds
  • Few at 1,500' AGL
  • Scattered at 9,000' AGL
Becoming Sep-24 @ 15:00 - Sep-25 @ 01:00
Wind Visibility
330° at 8 knots 10,000+ meters
Clouds
  • Scattered at 1,700' AGL
Temporary Sep-24 @ 17:00 - Sep-24 @ 19:00
Clouds
  • Scattered at 1,200' AGL
  • Broken at 7,000' AGL
Conditions
  • Thunderstorm
  • Rain
Becoming Sep-25 @ 01:00 - Sep-25 @ 12:00
Wind Visibility
180° at 5 knots 10,000+ meters
Clouds
  • Few at 1,200' AGL
  • Scattered at 7,000' AGL